Time;durP1;ratioP1;P1;durP2;ratioP2;P2;SDS_P1;SDS_P2;PMS_P1;PMS_P2;Temp;Humidity;BMP_temperature;BMP_pressure;BME280_temperature;BME280_humidity;BME280_pressure;Samples;Min_cycle;Max_cycle;Signal;HPM_P1;HPM_P2
2022/01/18 00:00:18;;;;;;;0.00;0.00;;;;;;;;;;1757012;28;20245;-62
2022/01/18 00:01:11;;;;;;;0.00;0.00;;;;;;;;;;1759233;27;20729;-63
2022/01/18 00:02:02;;;;;;;0.00;0.00;;;;;;;;;;1765413;27;20204;-62
2022/01/18 00:02:54;;;;;;;0.00;0.00;;;;;;;;;;1758977;28;20737;-62
2022/01/18 00:03:45;;;;;;;0.03;0.03;;;;;;;;;;1758931;28;20201;-62
2022/01/18 00:04:38;;;;;;;0.00;0.00;;;;;;;;;;1758900;28;20288;-63
2022/01/18 00:05:30;;;;;;;0.00;0.00;;;;;;;;;;1756279;28;20818;-61
2022/01/18 00:06:23;;;;;;;0.00;0.00;;;;;;;;;;1758690;28;20258;-62
2022/01/18 00:07:14;;;;;;;0.00;0.00;;;;;;;;;;1759302;28;20639;-62
2022/01/18 00:08:06;;;;;;;0.00;0.00;;;;;;;;;;1758871;28;20532;-62
2022/01/18 00:08:57;;;;;;;0.00;0.00;;;;;;;;;;1758864;28;20292;-61
2022/01/18 00:09:50;;;;;;;0.00;0.00;;;;;;;;;;1758490;28;20654;-62
2022/01/18 00:10:41;;;;;;;0.00;0.00;;;;;;;;;;1756410;28;20620;-63
2022/01/18 00:11:40;;;;;;;0.00;0.00;;;;;;;;;;1763260;27;20227;-62
2022/01/18 00:12:54;;;;;;;0.00;0.00;;;;;;;;;;1759707;27;20910;-63
2022/01/18 00:13:49;;;;;;;0.00;0.00;;;;;;;;;;1753143;28;20201;-61
2022/01/18 00:14:43;;;;;;;0.00;0.00;;;;;;;;;;1761170;27;20227;-63
2022/01/18 00:15:39;;;;;;;0.00;0.00;;;;;;;;;;1761426;27;20266;-61
2022/01/18 00:16:36;;;;;;;0.00;0.00;;;;;;;;;;1758056;28;20313;-62
2022/01/18 00:17:40;;;;;;;0.00;0.00;;;;;;;;;;1758652;28;20678;-62
2022/01/18 00:18:33;;;;;;;0.00;0.00;;;;;;;;;;1751767;28;20190;-61
2022/01/18 00:19:25;;;;;;;0.00;0.00;;;;;;;;;;1757400;28;20598;-63
2022/01/18 00:20:21;;;;;;;0.00;0.00;;;;;;;;;;1756660;28;20665;-62
2022/01/18 00:21:23;;;;;;;0.00;0.00;;;;;;;;;;1759906;28;20627;-62
2022/01/18 00:22:15;;;;;;;0.00;0.00;;;;;;;;;;1763269;27;20620;-61
2022/01/18 00:23:08;;;;;;;0.00;0.00;;;;;;;;;;1758958;28;20668;-62
2022/01/18 00:23:59;;;;;;;0.00;0.00;;;;;;;;;;1758179;28;20212;-61
2022/01/18 00:24:52;;;;;;;0.00;0.00;;;;;;;;;;1758581;28;20237;-62
2022/01/18 00:25:47;;;;;;;0.00;0.00;;;;;;;;;;1753440;28;20265;-63
2022/01/18 00:26:39;;;;;;;0.00;0.00;;;;;;;;;;1759524;28;20224;-62
2022/01/18 00:27:31;;;;;;;0.00;0.00;;;;;;;;;;1758845;28;20703;-62
2022/01/18 00:28:23;;;;;;;0.00;0.00;;;;;;;;;;1759283;28;20228;-62
2022/01/18 00:29:17;;;;;;;0.00;0.00;;;;;;;;;;1758452;28;20205;-61
2022/01/18 00:30:27;;;;;;;0.00;0.00;;;;;;;;;;1752906;28;20229;-62
2022/01/18 00:31:35;;;;;;;0.00;0.00;;;;;;;;;;1758806;28;20236;-61
2022/01/18 00:32:37;;;;;;;0.00;0.00;;;;;;;;;;1761150;28;20247;-62
2022/01/18 00:33:41;;;;;;;0.00;0.00;;;;;;;;;;1766183;28;20201;-61
2022/01/18 00:34:36;;;;;;;0.00;0.00;;;;;;;;;;1760287;28;20612;-62
2022/01/18 00:35:33;;;;;;;0.00;0.00;;;;;;;;;;1762512;28;20276;-62
2022/01/18 00:36:35;;;;;;;0.00;0.00;;;;;;;;;;1761524;28;20196;-62
2022/01/18 00:37:33;;;;;;;0.00;0.00;;;;;;;;;;1762067;28;20291;-62
2022/01/18 00:38:31;;;;;;;0.00;0.00;;;;;;;;;;1759119;28;20193;-61
2022/01/18 00:39:22;;;;;;;0.00;0.00;;;;;;;;;;1758256;28;20200;-62
2022/01/18 00:40:15;;;;;;;0.00;0.00;;;;;;;;;;1764433;28;20557;-63
2022/01/18 00:41:06;;;;;;;0.00;0.00;;;;;;;;;;1758816;28;20522;-63
2022/01/18 00:41:58;;;;;;;0.00;0.00;;;;;;;;;;1765454;28;20216;-62
2022/01/18 00:42:49;;;;;;;0.10;0.10;;;;;;;;;;1759150;28;20564;-62
2022/01/18 00:43:42;;;;;;;0.00;0.00;;;;;;;;;;1766364;28;20204;-63
2022/01/18 00:44:34;;;;;;;0.00;0.00;;;;;;;;;;1758778;28;20192;-63
2022/01/18 00:45:25;;;;;;;0.00;0.00;;;;;;;;;;1756047;28;20237;-62
2022/01/18 00:46:18;;;;;;;0.00;0.00;;;;;;;;;;1761002;28;20239;-62
2022/01/18 00:47:09;;;;;;;0.00;0.00;;;;;;;;;;1758948;28;20209;-62
2022/01/18 00:48:02;;;;;;;0.00;0.00;;;;;;;;;;1761383;28;22440;-63
2022/01/18 00:48:55;;;;;;;0.00;0.00;;;;;;;;;;1763129;28;20601;-62
2022/01/18 00:49:49;;;;;;;0.00;0.00;;;;;;;;;;1758257;28;20201;-62
2022/01/18 00:50:40;;;;;;;0.00;0.00;;;;;;;;;;1756283;28;20762;-62
2022/01/18 00:51:37;;;;;;;0.00;0.00;;;;;;;;;;1763660;28;20200;-63
2022/01/18 00:52:32;;;;;;;0.00;0.00;;;;;;;;;;1760707;28;20217;-62
2022/01/18 00:53:25;;;;;;;0.00;0.00;;;;;;;;;;1759227;28;20289;-62
2022/01/18 00:54:22;;;;;;;0.00;0.00;;;;;;;;;;1758754;28;20236;-62
2022/01/18 00:55:14;;;;;;;0.00;0.00;;;;;;;;;;1756873;28;20706;-62
2022/01/18 00:56:17;;;;;;;0.00;0.00;;;;;;;;;;1757890;28;20228;-62
2022/01/18 00:57:10;;;;;;;0.00;0.00;;;;;;;;;;1753505;28;20201;-62
2022/01/18 00:58:01;;;;;;;0.00;0.00;;;;;;;;;;1761521;28;20709;-62
2022/01/18 00:58:53;;;;;;;0.00;0.00;;;;;;;;;;1764724;28;20653;-62
2022/01/18 00:59:47;;;;;;;0.00;0.00;;;;;;;;;;1759299;28;20207;-62
2022/01/18 01:00:38;;;;;;;0.00;0.00;;;;;;;;;;1759737;28;20270;-62
2022/01/18 01:01:33;;;;;;;0.00;0.00;;;;;;;;;;1763169;28;20207;-61
2022/01/18 01:02:24;;;;;;;0.00;0.00;;;;;;;;;;1762059;28;20216;-62
2022/01/18 01:03:16;;;;;;;0.00;0.00;;;;;;;;;;1759126;28;20287;-62
2022/01/18 01:04:07;;;;;;;0.00;0.00;;;;;;;;;;1758644;28;20210;-61
2022/01/18 01:04:59;;;;;;;0.00;0.00;;;;;;;;;;1759582;28;20258;-63
2022/01/18 01:05:51;;;;;;;0.00;0.00;;;;;;;;;;1756643;28;20232;-61
2022/01/18 01:06:44;;;;;;;0.00;0.00;;;;;;;;;;1758576;28;20197;-62
2022/01/18 01:07:37;;;;;;;0.00;0.00;;;;;;;;;;1758831;28;20713;-62
2022/01/18 01:08:29;;;;;;;0.00;0.00;;;;;;;;;;1758950;28;20507;-62
2022/01/18 01:09:21;;;;;;;0.10;0.10;;;;;;;;;;1758498;28;20208;-60
2022/01/18 01:10:13;;;;;;;0.00;0.00;;;;;;;;;;1757423;28;20616;-62
2022/01/18 01:11:05;;;;;;;0.00;0.00;;;;;;;;;;1758007;28;20240;-63
2022/01/18 01:11:57;;;;;;;0.00;0.00;;;;;;;;;;1758682;28;20201;-62
2022/01/18 01:12:48;;;;;;;0.00;0.00;;;;;;;;;;1759113;28;20204;-62
2022/01/18 01:13:44;;;;;;;0.00;0.00;;;;;;;;;;1766417;28;20580;-62
2022/01/18 01:14:36;;;;;;;0.00;0.00;;;;;;;;;;1758906;28;20241;-62
2022/01/18 01:15:30;;;;;;;0.00;0.00;;;;;;;;;;1756876;28;20228;-63
2022/01/18 01:16:47;;;;;;;0.00;0.00;;;;;;;;;;1762165;28;20196;-61
2022/01/18 01:17:45;;;;;;;0.00;0.00;;;;;;;;;;1760923;28;20667;-62
2022/01/18 01:18:46;;;;;;;0.00;0.00;;;;;;;;;;1752292;28;20182;-61
2022/01/18 01:31:59;;;;;;;0.00;0.00;;;;;;;;;;1757144;28;20193;-63
2022/01/18 01:34:17;;;;;;;0.00;0.00;;;;;;;;;;1765707;27;20176;-62
2022/01/18 01:35:13;;;;;;;0.00;0.00;;;;;;;;;;1759424;28;20229;-61
2022/01/18 01:41:42;;;;;;;0.00;0.00;;;;;;;;;;1756729;28;20201;-62
2022/01/18 01:42:06;;;;;;;0.00;0.00;;;;;;;;;;1753031;28;20684;-62
2022/01/18 01:43:14;;;;;;;0.00;0.00;;;;;;;;;;1759309;28;20201;-62
2022/01/18 01:44:18;;;;;;;0.05;0.05;;;;;;;;;;1759456;28;20600;-62
2022/01/18 01:45:14;;;;;;;0.00;0.00;;;;;;;;;;1759402;28;20998;-62
2022/01/18 01:46:06;;;;;;;0.00;0.00;;;;;;;;;;1758632;28;20237;-62
2022/01/18 01:46:58;;;;;;;0.00;0.00;;;;;;;;;;1760489;28;20196;-61
2022/01/18 01:47:51;;;;;;;0.10;0.10;;;;;;;;;;1759957;28;20574;-61
2022/01/18 01:48:45;;;;;;;0.00;0.00;;;;;;;;;;1760726;28;20231;-62
2022/01/18 01:49:37;;;;;;;0.00;0.00;;;;;;;;;;1759706;28;20678;-62
2022/01/18 01:50:40;;;;;;;0.00;0.00;;;;;;;;;;1757079;28;20228;-62
2022/01/18 01:51:31;;;;;;;0.00;0.00;;;;;;;;;;1763795;27;20677;-61
2022/01/18 01:52:24;;;;;;;0.10;0.10;;;;;;;;;;1762026;27;20252;-63
2022/01/18 01:53:15;;;;;;;0.00;0.00;;;;;;;;;;1765185;27;20204;-61
2022/01/18 01:54:10;;;;;;;0.00;0.00;;;;;;;;;;1763450;27;20200;-62
2022/01/18 01:55:01;;;;;;;0.00;0.00;;;;;;;;;;1760130;27;20225;-62
2022/01/18 01:55:54;;;;;;;0.00;0.00;;;;;;;;;;1757279;28;20251;-62
2022/01/18 01:56:45;;;;;;;0.00;0.00;;;;;;;;;;1765752;27;20681;-62
2022/01/18 01:57:37;;;;;;;0.00;0.00;;;;;;;;;;1761712;27;20288;-63
2022/01/18 01:58:29;;;;;;;0.00;0.00;;;;;;;;;;1766970;27;20200;-62
2022/01/18 01:59:21;;;;;;;0.00;0.00;;;;;;;;;;1757445;27;20580;-61
2022/01/18 02:00:14;;;;;;;0.00;0.00;;;;;;;;;;1757999;28;20205;-62
2022/01/18 02:01:07;;;;;;;0.00;0.00;;;;;;;;;;1758986;27;20308;-61
2022/01/18 02:01:59;;;;;;;0.00;0.00;;;;;;;;;;1766907;27;20211;-62
2022/01/18 02:02:51;;;;;;;0.00;0.00;;;;;;;;;;1760126;27;20787;-61
2022/01/18 02:03:42;;;;;;;0.00;0.00;;;;;;;;;;1767431;27;20219;-62
2022/01/18 02:04:34;;;;;;;0.00;0.00;;;;;;;;;;1759484;28;20200;-62
2022/01/18 02:05:26;;;;;;;0.00;0.00;;;;;;;;;;1757511;28;20706;-61
2022/01/18 02:06:18;;;;;;;0.00;0.00;;;;;;;;;;1759875;28;20287;-63
2022/01/18 02:07:09;;;;;;;0.00;0.00;;;;;;;;;;1759714;28;20216;-63
2022/01/18 02:08:01;;;;;;;0.00;0.00;;;;;;;;;;1762799;27;20225;-63
2022/01/18 02:08:53;;;;;;;0.00;0.00;;;;;;;;;;1764278;27;20200;-62
2022/01/18 02:09:46;;;;;;;0.00;0.00;;;;;;;;;;1762858;27;20617;-62
2022/01/18 02:10:38;;;;;;;0.00;0.00;;;;;;;;;;1762034;27;20228;-62
2022/01/18 02:11:30;;;;;;;0.00;0.00;;;;;;;;;;1762774;27;20468;-63
2022/01/18 02:12:22;;;;;;;0.00;0.00;;;;;;;;;;1758959;28;20204;-62
2022/01/18 02:13:14;;;;;;;0.00;0.00;;;;;;;;;;1759874;28;20205;-62
2022/01/18 02:14:12;;;;;;;0.00;0.00;;;;;;;;;;1759715;28;20204;-63
2022/01/18 02:15:11;;;;;;;0.00;0.00;;;;;;;;;;1764996;27;21133;-62
2022/01/18 02:16:16;;;;;;;0.00;0.00;;;;;;;;;;1758831;27;20312;-61
2022/01/18 02:22:09;;;;;;;0.00;0.00;;;;;;;;;;1729272;28;20184;-62
2022/01/18 02:23:00;;;;;;;0.00;0.00;;;;;;;;;;1759845;28;20350;-62
2022/01/18 02:23:52;;;;;;;0.00;0.00;;;;;;;;;;1754981;28;20732;-62
2022/01/18 02:24:43;;;;;;;0.00;0.00;;;;;;;;;;1759949;27;20197;-63
2022/01/18 02:25:36;;;;;;;0.00;0.00;;;;;;;;;;1754986;28;20263;-61
2022/01/18 02:26:27;;;;;;;0.00;0.00;;;;;;;;;;1763705;27;20214;-63
2022/01/18 02:27:20;;;;;;;0.00;0.00;;;;;;;;;;1763623;27;20211;-62
2022/01/18 02:28:11;;;;;;;0.00;0.00;;;;;;;;;;1764119;27;20204;-63
2022/01/18 02:29:05;;;;;;;0.00;0.00;;;;;;;;;;1761026;27;20209;-61
2022/01/18 02:29:57;;;;;;;0.00;0.00;;;;;;;;;;1758684;28;20201;-63
2022/01/18 02:30:48;;;;;;;0.00;0.00;;;;;;;;;;1756777;28;20724;-62
2022/01/18 02:31:41;;;;;;;0.00;0.00;;;;;;;;;;1759952;28;20207;-62
2022/01/18 02:32:32;;;;;;;0.00;0.00;;;;;;;;;;1758572;28;20225;-62
2022/01/18 02:33:24;;;;;;;0.00;0.00;;;;;;;;;;1765421;27;20208;-61
2022/01/18 02:34:17;;;;;;;0.00;0.00;;;;;;;;;;1761153;27;20238;-63
2022/01/18 02:35:10;;;;;;;0.00;0.00;;;;;;;;;;1765221;27;20252;-61
2022/01/18 02:36:06;;;;;;;0.00;0.00;;;;;;;;;;1758930;27;20746;-62
2022/01/18 02:36:59;;;;;;;0.00;0.00;;;;;;;;;;1753050;28;20236;-62
2022/01/18 02:37:52;;;;;;;0.00;0.00;;;;;;;;;;1760067;27;20638;-62
2022/01/18 02:38:44;;;;;;;0.00;0.00;;;;;;;;;;1766785;27;20211;-61
2022/01/18 02:39:36;;;;;;;0.00;0.00;;;;;;;;;;1758643;27;20201;-61
2022/01/18 02:40:30;;;;;;;0.00;0.00;;;;;;;;;;1756295;28;20240;-62
2022/01/18 02:41:25;;;;;;;0.00;0.00;;;;;;;;;;1759459;28;20200;-61
2022/01/18 02:42:23;;;;;;;0.00;0.00;;;;;;;;;;1758964;28;20192;-62
2022/01/18 02:44:26;;;;;;;0.00;0.00;;;;;;;;;;1760418;27;20194;-62
2022/01/18 02:45:17;;;;;;;0.00;0.00;;;;;;;;;;1757701;28;20241;-62
2022/01/18 02:46:12;;;;;;;0.00;0.00;;;;;;;;;;1757195;28;20256;-62
2022/01/18 02:47:03;;;;;;;0.00;0.00;;;;;;;;;;1759871;28;20205;-62
2022/01/18 02:47:56;;;;;;;0.00;0.00;;;;;;;;;;1759697;28;20197;-62
2022/01/18 02:48:47;;;;;;;0.00;0.00;;;;;;;;;;1759683;28;20275;-61
2022/01/18 02:49:39;;;;;;;0.00;0.00;;;;;;;;;;1761370;27;20610;-62
2022/01/18 02:50:30;;;;;;;0.00;0.00;;;;;;;;;;1762719;27;20709;-62
2022/01/18 02:51:24;;;;;;;0.00;0.00;;;;;;;;;;1762035;27;20204;-61
2022/01/18 02:52:16;;;;;;;0.00;0.00;;;;;;;;;;1762814;27;20204;-62
2022/01/18 02:53:08;;;;;;;0.00;0.00;;;;;;;;;;1763255;27;20219;-62
2022/01/18 02:54:03;;;;;;;0.00;0.00;;;;;;;;;;1763959;27;20396;-62
2022/01/18 02:54:55;;;;;;;0.00;0.00;;;;;;;;;;1764258;27;20207;-62
2022/01/18 02:55:49;;;;;;;0.00;0.00;;;;;;;;;;1760831;27;20241;-62
2022/01/18 02:56:46;;;;;;;0.00;0.00;;;;;;;;;;1765130;27;20201;-62
2022/01/18 02:57:51;;;;;;;0.00;0.00;;;;;;;;;;1761256;27;20283;-62
2022/01/18 02:58:44;;;;;;;0.00;0.00;;;;;;;;;;1752033;28;20182;-61
2022/01/18 02:59:45;;;;;;;0.00;0.00;;;;;;;;;;1755910;28;20208;-62
2022/01/18 03:00:45;;;;;;;0.00;0.00;;;;;;;;;;1756136;28;20239;-61
2022/01/18 03:03:56;;;;;;;0.00;0.00;;;;;;;;;;1759251;28;20900;-61
2022/01/18 03:04:50;;;;;;;0.00;0.00;;;;;;;;;;1758733;28;20247;-61
2022/01/18 03:05:41;;;;;;;0.00;0.00;;;;;;;;;;1756592;28;20769;-61
2022/01/18 03:06:34;;;;;;;0.00;0.00;;;;;;;;;;1759620;28;20600;-61
2022/01/18 03:07:27;;;;;;;0.00;0.00;;;;;;;;;;1759095;28;20228;-62
2022/01/18 03:08:18;;;;;;;0.00;0.00;;;;;;;;;;1757478;28;20205;-62
2022/01/18 03:09:11;;;;;;;0.00;0.00;;;;;;;;;;1759183;28;20206;-61
2022/01/18 03:10:04;;;;;;;0.00;0.00;;;;;;;;;;1758870;28;20201;-61
2022/01/18 03:10:56;;;;;;;0.00;0.00;;;;;;;;;;1756023;28;20300;-62
2022/01/18 03:11:49;;;;;;;0.00;0.00;;;;;;;;;;1765538;27;20257;-61
2022/01/18 03:12:40;;;;;;;0.00;0.00;;;;;;;;;;1760739;27;20197;-61
2022/01/18 03:13:32;;;;;;;0.00;0.00;;;;;;;;;;1766201;27;20243;-61
2022/01/18 03:14:23;;;;;;;0.00;0.00;;;;;;;;;;1760542;27;20668;-62
2022/01/18 03:15:15;;;;;;;0.00;0.00;;;;;;;;;;1764677;27;20216;-62
2022/01/18 03:16:07;;;;;;;0.00;0.00;;;;;;;;;;1759825;27;20299;-62
2022/01/18 03:16:59;;;;;;;0.00;0.00;;;;;;;;;;1766151;27;20251;-62
2022/01/18 03:17:50;;;;;;;0.00;0.00;;;;;;;;;;1760422;27;20611;-63
2022/01/18 03:18:42;;;;;;;0.00;0.00;;;;;;;;;;1766479;27;20582;-62
2022/01/18 03:19:33;;;;;;;0.00;0.00;;;;;;;;;;1758494;28;20271;-61
2022/01/18 03:20:26;;;;;;;0.00;0.00;;;;;;;;;;1757246;28;20271;-62
2022/01/18 03:21:17;;;;;;;0.00;0.00;;;;;;;;;;1758992;28;20247;-62
2022/01/18 03:22:11;;;;;;;0.00;0.00;;;;;;;;;;1758708;28;20197;-62
2022/01/18 03:23:04;;;;;;;0.00;0.00;;;;;;;;;;1758418;28;20204;-61
2022/01/18 03:24:11;;;;;;;0.00;0.00;;;;;;;;;;1753773;28;20502;-62
2022/01/18 03:25:25;;;;;;;0.00;0.00;;;;;;;;;;1758534;28;20228;-62
2022/01/18 03:26:18;;;;;;;0.00;0.00;;;;;;;;;;1758343;27;20237;-62
2022/01/18 03:28:19;;;;;;;0.00;0.00;;;;;;;;;;1757646;28;20188;-62
2022/01/18 03:29:10;;;;;;;0.00;0.00;;;;;;;;;;1758009;28;20200;-61
2022/01/18 03:30:05;;;;;;;0.00;0.00;;;;;;;;;;1763707;27;20208;-62
2022/01/18 03:30:58;;;;;;;0.00;0.00;;;;;;;;;;1754342;28;20614;-62
2022/01/18 03:31:50;;;;;;;0.00;0.00;;;;;;;;;;1758961;28;20207;-62
2022/01/18 03:32:41;;;;;;;0.00;0.00;;;;;;;;;;1759123;28;20690;-62
2022/01/18 03:33:34;;;;;;;0.00;0.00;;;;;;;;;;1759677;28;20680;-63
2022/01/18 03:34:26;;;;;;;0.00;0.00;;;;;;;;;;1758793;28;20213;-61
2022/01/18 03:35:18;;;;;;;0.00;0.00;;;;;;;;;;1756755;28;20630;-62
2022/01/18 03:36:09;;;;;;;0.00;0.00;;;;;;;;;;1758649;27;20243;-62
2022/01/18 03:37:01;;;;;;;0.00;0.00;;;;;;;;;;1760697;27;20209;-62
2022/01/18 03:37:55;;;;;;;0.00;0.00;;;;;;;;;;1759124;28;20288;-62
2022/01/18 03:38:46;;;;;;;0.00;0.00;;;;;;;;;;1759185;28;20211;-61
2022/01/18 03:39:38;;;;;;;0.00;0.00;;;;;;;;;;1758542;28;20323;-62
2022/01/18 03:40:29;;;;;;;0.00;0.00;;;;;;;;;;1756321;28;20307;-62
2022/01/18 03:41:22;;;;;;;0.00;0.00;;;;;;;;;;1758850;28;20364;-62
2022/01/18 03:43:23;;;;;;;0.00;0.00;;;;;;;;;;1764185;27;20666;-61
2022/01/18 03:44:15;;;;;;;0.00;0.00;;;;;;;;;;1761535;27;20216;-62
2022/01/18 03:45:08;;;;;;;0.00;0.00;;;;;;;;;;1759176;28;20316;-61
2022/01/18 03:46:02;;;;;;;0.00;0.00;;;;;;;;;;1756465;28;20237;-62
2022/01/18 03:46:55;;;;;;;0.00;0.00;;;;;;;;;;1752536;28;20198;-62
2022/01/18 03:47:46;;;;;;;0.00;0.00;;;;;;;;;;1757685;28;20202;-61
2022/01/18 03:48:39;;;;;;;0.00;0.00;;;;;;;;;;1766163;27;20224;-61
2022/01/18 03:49:35;;;;;;;0.00;0.00;;;;;;;;;;1760419;27;20201;-61
2022/01/18 03:50:28;;;;;;;0.00;0.00;;;;;;;;;;1763144;27;20837;-60
2022/01/18 03:51:19;;;;;;;0.00;0.00;;;;;;;;;;1761404;27;20647;-62
2022/01/18 03:52:11;;;;;;;0.00;0.00;;;;;;;;;;1764617;27;20206;-62
2022/01/18 03:53:04;;;;;;;0.00;0.00;;;;;;;;;;1762102;27;20567;-62
2022/01/18 03:53:56;;;;;;;0.00;0.00;;;;;;;;;;1760684;27;20202;-61
2022/01/18 03:54:47;;;;;;;0.00;0.00;;;;;;;;;;1758827;28;20254;-62
2022/01/18 03:55:39;;;;;;;0.00;0.00;;;;;;;;;;1755402;28;20248;-62
2022/01/18 03:56:31;;;;;;;0.00;0.00;;;;;;;;;;1758660;28;20197;-61
2022/01/18 03:57:23;;;;;;;0.00;0.00;;;;;;;;;;1759164;28;20323;-61
2022/01/18 03:58:14;;;;;;;0.00;0.00;;;;;;;;;;1763566;27;20208;-62
2022/01/18 03:59:07;;;;;;;0.00;0.00;;;;;;;;;;1762761;27;20634;-62
2022/01/18 03:59:58;;;;;;;0.00;0.00;;;;;;;;;;1755976;28;20574;-62
2022/01/18 04:00:51;;;;;;;0.00;0.00;;;;;;;;;;1756043;28;20252;-63
2022/01/18 04:01:42;;;;;;;0.00;0.00;;;;;;;;;;1759404;28;20208;-62
2022/01/18 04:02:34;;;;;;;0.00;0.00;;;;;;;;;;1758074;28;20208;-62
2022/01/18 04:03:26;;;;;;;0.00;0.00;;;;;;;;;;1759746;28;20562;-63
2022/01/18 04:04:19;;;;;;;0.00;0.00;;;;;;;;;;1759239;28;20250;-62
2022/01/18 04:05:11;;;;;;;0.00;0.00;;;;;;;;;;1757945;28;20562;-62
2022/01/18 04:06:03;;;;;;;0.00;0.00;;;;;;;;;;1757355;28;20283;-62
2022/01/18 04:06:54;;;;;;;0.00;0.00;;;;;;;;;;1759101;28;20201;-63
2022/01/18 04:07:47;;;;;;;0.00;0.00;;;;;;;;;;1758609;28;20197;-63
2022/01/18 04:08:39;;;;;;;0.00;0.00;;;;;;;;;;1766572;27;20821;-62
2022/01/18 04:09:32;;;;;;;0.00;0.00;;;;;;;;;;1758561;28;20201;-61
2022/01/18 04:10:24;;;;;;;0.00;0.00;;;;;;;;;;1756855;28;20232;-62
2022/01/18 04:11:15;;;;;;;0.00;0.00;;;;;;;;;;1758783;28;20587;-62
2022/01/18 04:12:08;;;;;;;0.00;0.00;;;;;;;;;;1757804;28;20322;-62
2022/01/18 04:12:59;;;;;;;0.00;0.00;;;;;;;;;;1760957;28;20497;-62
2022/01/18 04:13:51;;;;;;;0.00;0.00;;;;;;;;;;1765199;27;20561;-62
2022/01/18 04:14:43;;;;;;;0.00;0.00;;;;;;;;;;1762268;27;20409;-62
2022/01/18 04:15:35;;;;;;;0.00;0.00;;;;;;;;;;1752069;27;20235;-62
2022/01/18 04:16:27;;;;;;;0.00;0.00;;;;;;;;;;1758829;28;20583;-61
2022/01/18 04:17:33;;;;;;;0.00;0.00;;;;;;;;;;1759230;28;20565;-62
2022/01/18 04:18:31;;;;;;;0.00;0.00;;;;;;;;;;1756928;28;20646;-61
2022/01/18 04:25:48;;;;;;;0.00;0.00;;;;;;;;;;1758971;28;20728;-63
2022/01/18 04:27:49;;;;;;;0.00;0.00;;;;;;;;;;1756967;28;20234;-63
2022/01/18 04:28:43;;;;;;;0.10;0.10;;;;;;;;;;1759360;28;20186;-62
2022/01/18 04:29:35;;;;;;;0.00;0.00;;;;;;;;;;1758756;28;20197;-62
2022/01/18 04:30:26;;;;;;;0.00;0.00;;;;;;;;;;1759029;28;20561;-62
2022/01/18 04:31:18;;;;;;;0.00;0.00;;;;;;;;;;1760577;28;20288;-61
2022/01/18 04:32:10;;;;;;;0.00;0.00;;;;;;;;;;1764773;28;20204;-62
2022/01/18 04:33:02;;;;;;;0.00;0.00;;;;;;;;;;1761017;28;20220;-62
2022/01/18 04:33:53;;;;;;;0.00;0.00;;;;;;;;;;1765055;28;20714;-62
2022/01/18 04:34:46;;;;;;;0.00;0.00;;;;;;;;;;1760982;28;20211;-62
2022/01/18 04:35:37;;;;;;;0.00;0.00;;;;;;;;;;1761830;28;21060;-62
2022/01/18 04:36:29;;;;;;;0.00;0.00;;;;;;;;;;1761813;28;20227;-62
2022/01/18 04:37:20;;;;;;;0.00;0.00;;;;;;;;;;1763152;28;20805;-62
2022/01/18 04:38:12;;;;;;;0.00;0.00;;;;;;;;;;1763231;28;20720;-61
2022/01/18 04:39:04;;;;;;;0.00;0.00;;;;;;;;;;1763132;28;20208;-62
2022/01/18 04:39:58;;;;;;;0.00;0.00;;;;;;;;;;1758363;28;20263;-62
2022/01/18 04:40:50;;;;;;;0.00;0.00;;;;;;;;;;1756114;28;20306;-61
2022/01/18 04:41:43;;;;;;;0.00;0.00;;;;;;;;;;1759370;28;20929;-62
2022/01/18 04:42:45;;;;;;;0.00;0.00;;;;;;;;;;1757883;28;20208;-61
2022/01/18 04:43:48;;;;;;;0.00;0.00;;;;;;;;;;1751861;28;20312;-63
2022/01/18 04:49:21;;;;;;;0.00;0.00;;;;;;;;;;1750132;28;20245;-61
2022/01/18 04:50:12;;;;;;;0.00;0.00;;;;;;;;;;1763591;28;20204;-62
2022/01/18 04:51:07;;;;;;;0.00;0.00;;;;;;;;;;1759194;28;20233;-62
2022/01/18 04:51:58;;;;;;;0.00;0.00;;;;;;;;;;1751746;28;20468;-62
2022/01/18 04:52:50;;;;;;;0.00;0.00;;;;;;;;;;1757763;28;20228;-62
2022/01/18 04:53:48;;;;;;;0.00;0.00;;;;;;;;;;1759292;28;20247;-62
2022/01/18 04:54:42;;;;;;;0.00;0.00;;;;;;;;;;1758674;28;20197;-62
2022/01/18 04:55:36;;;;;;;0.00;0.00;;;;;;;;;;1755658;28;20236;-61
2022/01/18 04:57:51;;;;;;;0.00;0.00;;;;;;;;;;1761663;28;20204;-62
2022/01/18 04:57:53;;;;;;;0.00;0.00;;;;;;;;;;1760852;28;20189;-62
2022/01/18 04:58:44;;;;;;;0.00;0.00;;;;;;;;;;1752374;28;20597;-62
2022/01/18 04:59:37;;;;;;;0.00;0.00;;;;;;;;;;1756623;28;20197;-62
2022/01/18 05:00:28;;;;;;;0.00;0.00;;;;;;;;;;1762271;28;20718;-62
2022/01/18 05:01:20;;;;;;;0.00;0.00;;;;;;;;;;1758290;28;20211;-62
2022/01/18 05:02:11;;;;;;;0.00;0.00;;;;;;;;;;1757390;28;20213;-62
2022/01/18 05:03:04;;;;;;;0.00;0.00;;;;;;;;;;1761121;28;20205;-62
2022/01/18 05:03:55;;;;;;;0.00;0.00;;;;;;;;;;1764859;28;20199;-63
2022/01/18 05:04:47;;;;;;;0.00;0.00;;;;;;;;;;1758856;28;21060;-62
2022/01/18 05:05:38;;;;;;;0.00;0.00;;;;;;;;;;1756069;28;20289;-62
2022/01/18 05:06:30;;;;;;;0.00;0.00;;;;;;;;;;1763608;28;20196;-62
2022/01/18 05:07:22;;;;;;;0.00;0.00;;;;;;;;;;1763219;28;20204;-62
2022/01/18 05:08:14;;;;;;;0.00;0.00;;;;;;;;;;1762514;27;20200;-62
2022/01/18 05:09:08;;;;;;;0.00;0.00;;;;;;;;;;1764639;27;20211;-63
2022/01/18 05:10:00;;;;;;;0.00;0.00;;;;;;;;;;1764560;27;20206;-62
2022/01/18 05:10:55;;;;;;;0.00;0.00;;;;;;;;;;1762190;27;20236;-62
2022/01/18 05:11:55;;;;;;;0.00;0.00;;;;;;;;;;1765350;27;20204;-62
2022/01/18 05:12:49;;;;;;;0.00;0.00;;;;;;;;;;1762644;27;20220;-62
2022/01/18 05:14:02;;;;;;;0.00;0.00;;;;;;;;;;1767256;27;20227;-61
2022/01/18 05:14:54;;;;;;;0.00;0.00;;;;;;;;;;1759462;28;20676;-62
2022/01/18 05:15:51;;;;;;;0.00;0.00;;;;;;;;;;1757639;28;20660;-63
2022/01/18 05:16:53;;;;;;;0.00;0.00;;;;;;;;;;1760405;28;20193;-62
2022/01/18 05:18:08;;;;;;;0.08;0.08;;;;;;;;;;1761224;27;20399;-62
2022/01/18 05:19:08;;;;;;;0.00;0.00;;;;;;;;;;1761939;27;20208;-61
2022/01/18 05:20:24;;;;;;;0.10;0.10;;;;;;;;;;1756871;28;20273;-62
2022/01/18 05:21:20;;;;;;;0.00;0.00;;;;;;;;;;1757615;27;20245;-62
2022/01/18 05:23:22;;;;;;;0.00;0.00;;;;;;;;;;1758156;28;20200;-62
2022/01/18 05:24:14;;;;;;;0.05;0.05;;;;;;;;;;1760140;28;20265;-62
2022/01/18 05:25:06;;;;;;;0.00;0.00;;;;;;;;;;1765469;27;20277;-61
2022/01/18 05:25:59;;;;;;;0.00;0.00;;;;;;;;;;1759956;27;20301;-62
2022/01/18 05:26:51;;;;;;;0.00;0.00;;;;;;;;;;1765790;27;20196;-62
2022/01/18 05:27:44;;;;;;;0.00;0.00;;;;;;;;;;1762067;27;20325;-62
2022/01/18 05:28:35;;;;;;;0.00;0.00;;;;;;;;;;1760009;28;20208;-62
2022/01/18 05:29:27;;;;;;;0.00;0.00;;;;;;;;;;1759298;28;20193;-62
2022/01/18 05:30:18;;;;;;;0.00;0.00;;;;;;;;;;1751780;28;20658;-62
2022/01/18 05:31:11;;;;;;;0.00;0.00;;;;;;;;;;1757905;28;20728;-62
2022/01/18 05:32:02;;;;;;;0.00;0.00;;;;;;;;;;1759549;28;20704;-62
2022/01/18 05:32:54;;;;;;;0.00;0.00;;;;;;;;;;1760797;27;20574;-62
2022/01/18 05:33:47;;;;;;;0.00;0.00;;;;;;;;;;1767387;27;20251;-61
2022/01/18 05:34:39;;;;;;;0.00;0.00;;;;;;;;;;1762495;27;20205;-62
2022/01/18 05:35:31;;;;;;;0.00;0.00;;;;;;;;;;1763348;27;20427;-60
2022/01/18 05:36:23;;;;;;;0.00;0.00;;;;;;;;;;1759476;28;20672;-62
2022/01/18 05:37:14;;;;;;;0.00;0.00;;;;;;;;;;1760043;28;20341;-61
2022/01/18 05:38:06;;;;;;;0.00;0.00;;;;;;;;;;1762454;27;20204;-62
2022/01/18 05:38:57;;;;;;;0.00;0.00;;;;;;;;;;1764555;27;20293;-61
2022/01/18 05:39:49;;;;;;;0.00;0.00;;;;;;;;;;1762042;27;20673;-62
2022/01/18 05:40:41;;;;;;;0.00;0.00;;;;;;;;;;1762452;27;20248;-61
2022/01/18 05:41:34;;;;;;;0.00;0.00;;;;;;;;;;1763695;27;20897;-62
2022/01/18 05:42:25;;;;;;;0.00;0.00;;;;;;;;;;1763665;27;20211;-62
2022/01/18 05:43:18;;;;;;;0.05;0.05;;;;;;;;;;1763988;27;20294;-61
2022/01/18 05:44:09;;;;;;;0.00;0.00;;;;;;;;;;1763849;27;20576;-62
2022/01/18 05:45:02;;;;;;;0.00;0.00;;;;;;;;;;1756291;28;20421;-62
2022/01/18 05:45:53;;;;;;;0.00;0.00;;;;;;;;;;1767300;22;20261;-62
2022/01/18 05:46:45;;;;;;;0.00;0.00;;;;;;;;;;1725432;28;20686;-61
2022/01/18 05:47:36;;;;;;;0.00;0.00;;;;;;;;;;1728490;28;20215;-61
2022/01/18 05:48:29;;;;;;;0.00;0.00;;;;;;;;;;1729181;28;20246;-61
2022/01/18 05:49:21;;;;;;;0.00;0.00;;;;;;;;;;1728589;28;20586;-62
2022/01/18 05:50:13;;;;;;;0.00;0.00;;;;;;;;;;1729411;27;20211;-62
2022/01/18 05:51:05;;;;;;;0.00;0.00;;;;;;;;;;1729202;28;20299;-62
2022/01/18 05:51:56;;;;;;;0.00;0.00;;;;;;;;;;1730893;28;20661;-62
2022/01/18 05:52:49;;;;;;;0.00;0.00;;;;;;;;;;1730669;28;20210;-61
2022/01/18 05:53:41;;;;;;;0.00;0.00;;;;;;;;;;1731364;28;20204;-61
2022/01/18 05:54:33;;;;;;;0.00;0.00;;;;;;;;;;1731277;28;20207;-62
2022/01/18 05:55:24;;;;;;;0.00;0.00;;;;;;;;;;1728828;28;20681;-62
2022/01/18 05:56:16;;;;;;;0.00;0.00;;;;;;;;;;1731868;28;20658;-61
2022/01/18 05:57:09;;;;;;;0.00;0.00;;;;;;;;;;1730490;28;20275;-63
2022/01/18 05:58:01;;;;;;;0.00;0.00;;;;;;;;;;1732052;28;20203;-61
2022/01/18 05:58:55;;;;;;;0.00;0.00;;;;;;;;;;1731270;28;20215;-62
2022/01/18 05:59:48;;;;;;;0.00;0.00;;;;;;;;;;1728845;28;20210;-62
2022/01/18 06:00:41;;;;;;;0.00;0.00;;;;;;;;;;1728916;27;20333;-61
2022/01/18 06:01:35;;;;;;;0.00;0.00;;;;;;;;;;1731204;28;20598;-60
2022/01/18 06:02:37;;;;;;;0.00;0.00;;;;;;;;;;1730946;28;20196;-60
2022/01/18 06:03:32;;;;;;;0.00;0.00;;;;;;;;;;1729307;28;20711;-62
2022/01/18 06:06:54;;;;;;;0.00;0.00;;;;;;;;;;1732007;28;20863;-61
2022/01/18 06:07:45;;;;;;;0.03;0.03;;;;;;;;;;1731456;28;20593;-62